sensor_id;sensor_type;location;lat;lon;timestamp;pressure;altitude;pressure_sealevel;temperature;humidity
71889;BME280;59762;49.998;14.858;2023-04-07T00:00:20;97546.59;;;1.88;66.18
71889;BME280;59762;49.998;14.858;2023-04-07T00:03:06;97549.66;;;1.94;66.20
71889;BME280;59762;49.998;14.858;2023-04-07T00:05:32;97551.25;;;1.97;65.98
71889;BME280;59762;49.998;14.858;2023-04-07T00:07:57;97543.44;;;1.95;65.32
71889;BME280;59762;49.998;14.858;2023-04-07T00:10:24;97549.66;;;1.94;64.74
71889;BME280;59762;49.998;14.858;2023-04-07T00:12:50;97547.88;;;1.95;64.60
71889;BME280;59762;49.998;14.858;2023-04-07T00:15:15;97549.47;;;1.97;64.08
71889;BME280;59762;49.998;14.858;2023-04-07T00:17:41;97542.19;;;2.01;63.52
71889;BME280;59762;49.998;14.858;2023-04-07T00:20:07;97539.56;;;2.01;64.46
71889;BME280;59762;49.998;14.858;2023-04-07T00:22:33;97536.63;;;2.05;62.64
71889;BME280;59762;49.998;14.858;2023-04-07T00:24:58;97536.53;;;2.07;62.55
71889;BME280;59762;49.998;14.858;2023-04-07T00:27:24;97528.41;;;2.10;63.30
71889;BME280;59762;49.998;14.858;2023-04-07T00:29:50;97531.03;;;2.10;63.30
71889;BME280;59762;49.998;14.858;2023-04-07T00:32:19;97533.47;;;2.13;63.83
71889;BME280;59762;49.998;14.858;2023-04-07T00:34:44;97525.28;;;2.17;63.37
71889;BME280;59762;49.998;14.858;2023-04-07T00:37:10;97522.41;;;2.08;63.11
71889;BME280;59762;49.998;14.858;2023-04-07T00:39:36;97522.41;;;2.08;63.13
71889;BME280;59762;49.998;14.858;2023-04-07T00:42:05;97522.31;;;2.09;64.38
71889;BME280;59762;49.998;14.858;2023-04-07T00:44:32;97522.94;;;2.13;63.02
71889;BME280;59762;49.998;14.858;2023-04-07T00:46:58;97519.59;;;2.11;62.83
71889;BME280;59762;49.998;14.858;2023-04-07T00:49:26;97514.41;;;2.09;63.28
71889;BME280;59762;49.998;14.858;2023-04-07T00:51:54;97511.25;;;2.17;62.31
71889;BME280;59762;49.998;14.858;2023-04-07T00:54:24;97503.88;;;2.22;62.49
71889;BME280;59762;49.998;14.858;2023-04-07T00:56:51;97506.63;;;2.33;61.73
71889;BME280;59762;49.998;14.858;2023-04-07T00:59:17;97501.97;;;2.36;61.37
71889;BME280;59762;49.998;14.858;2023-04-07T01:01:50;97502.69;;;2.38;61.82
71889;BME280;59762;49.998;14.858;2023-04-07T01:04:25;97494.59;;;2.41;61.52
71889;BME280;59762;49.998;14.858;2023-04-07T01:06:56;97488.88;;;2.47;60.82
71889;BME280;59762;49.998;14.858;2023-04-07T01:09:29;97493.22;;;2.48;61.12
71889;BME280;59762;49.998;14.858;2023-04-07T01:12:14;97486.38;;;2.46;61.53
71889;BME280;59762;49.998;14.858;2023-04-07T01:14:50;97487.44;;;2.43;61.41
71889;BME280;59762;49.998;14.858;2023-04-07T01:17:18;97487.66;;;2.40;62.15
71889;BME280;59762;49.998;14.858;2023-04-07T01:19:52;97473.50;;;2.41;61.27
71889;BME280;59762;49.998;14.858;2023-04-07T01:22:28;97486.47;;;2.44;62.15
71889;BME280;59762;49.998;14.858;2023-04-07T01:28:24;97477.53;;;2.47;60.90
71889;BME280;59762;49.998;14.858;2023-04-07T01:30:58;97474.88;;;2.47;62.30
71889;BME280;59762;49.998;14.858;2023-04-07T01:33:26;97469.09;;;2.42;61.23
71889;BME280;59762;49.998;14.858;2023-04-07T01:35:58;97461.09;;;2.43;60.91
71889;BME280;59762;49.998;14.858;2023-04-07T01:38:25;97465.06;;;2.49;60.35
71889;BME280;59762;49.998;14.858;2023-04-07T01:40:53;97472.16;;;2.48;61.60
71889;BME280;59762;49.998;14.858;2023-04-07T01:43:20;97471.09;;;2.51;61.18
71889;BME280;59762;49.998;14.858;2023-04-07T01:45:47;97469.16;;;2.53;60.67
71889;BME280;59762;49.998;14.858;2023-04-07T01:48:14;97474.84;;;2.59;60.22
71889;BME280;59762;49.998;14.858;2023-04-07T01:50:42;97469.69;;;2.58;60.94
71889;BME280;59762;49.998;14.858;2023-04-07T01:53:08;97465.97;;;2.60;59.37
71889;BME280;59762;49.998;14.858;2023-04-07T01:55:35;97460.63;;;2.62;59.34
71889;BME280;59762;49.998;14.858;2023-04-07T01:58:05;97458.50;;;2.67;60.40
71889;BME280;59762;49.998;14.858;2023-04-07T02:00:31;97463.03;;;2.65;60.79
71889;BME280;59762;49.998;14.858;2023-04-07T02:03:06;97454.63;;;2.60;60.32
71889;BME280;59762;49.998;14.858;2023-04-07T02:05:37;97454.06;;;2.67;59.69
71889;BME280;59762;49.998;14.858;2023-04-07T02:08:07;97461.88;;;2.69;59.78
71889;BME280;59762;49.998;14.858;2023-04-07T02:10:36;97461.66;;;2.72;59.24
71889;BME280;59762;49.998;14.858;2023-04-07T02:13:04;97451.38;;;2.80;58.62
71889;BME280;59762;49.998;14.858;2023-04-07T02:15:31;97452.34;;;2.79;59.08
71889;BME280;59762;49.998;14.858;2023-04-07T02:17:58;97442.00;;;2.76;59.05
71889;BME280;59762;49.998;14.858;2023-04-07T02:20:25;97440.03;;;2.79;59.80
71889;BME280;59762;49.998;14.858;2023-04-07T02:22:52;97428.63;;;2.79;59.55
71889;BME280;59762;49.998;14.858;2023-04-07T02:25:25;97436.41;;;2.80;59.36
71889;BME280;59762;49.998;14.858;2023-04-07T02:27:51;97433.38;;;2.74;59.72
71889;BME280;59762;49.998;14.858;2023-04-07T02:30:17;97435.81;;;2.77;59.07
71889;BME280;59762;49.998;14.858;2023-04-07T02:32:43;97439.66;;;2.84;58.67
71889;BME280;59762;49.998;14.858;2023-04-07T02:35:09;97433.88;;;2.79;58.50
71889;BME280;59762;49.998;14.858;2023-04-07T02:37:36;97429.97;;;2.84;58.50
71889;BME280;59762;49.998;14.858;2023-04-07T02:40:03;97431.53;;;2.87;57.92
71889;BME280;59762;49.998;14.858;2023-04-07T02:42:29;97434.41;;;2.84;58.74
71889;BME280;59762;49.998;14.858;2023-04-07T02:44:55;97440.03;;;2.79;58.74
71889;BME280;59762;49.998;14.858;2023-04-07T02:47:20;97434.25;;;2.74;59.15
71889;BME280;59762;49.998;14.858;2023-04-07T02:49:46;97435.69;;;2.78;58.83
71889;BME280;59762;49.998;14.858;2023-04-07T02:52:12;97432.22;;;2.78;59.57
71889;BME280;59762;49.998;14.858;2023-04-07T02:54:38;97434.94;;;2.76;59.91
71889;BME280;59762;49.998;14.858;2023-04-07T02:57:03;97429.88;;;2.73;59.57
71889;BME280;59762;49.998;14.858;2023-04-07T02:59:29;97425.19;;;2.66;59.74
71889;BME280;59762;49.998;14.858;2023-04-07T03:01:54;97422.34;;;2.69;60.86
71889;BME280;59762;49.998;14.858;2023-04-07T03:04:21;97422.44;;;2.67;59.60
71889;BME280;59762;49.998;14.858;2023-04-07T03:06:46;97429.19;;;2.71;59.10
71889;BME280;59762;49.998;14.858;2023-04-07T03:09:12;97433.09;;;2.66;60.45
71889;BME280;59762;49.998;14.858;2023-04-07T03:11:38;97432.13;;;2.67;58.91
71889;BME280;59762;49.998;14.858;2023-04-07T03:14:04;97424.00;;;2.70;61.36
71889;BME280;59762;49.998;14.858;2023-04-07T03:16:30;97419.34;;;2.73;59.57
71889;BME280;59762;49.998;14.858;2023-04-07T03:18:55;97424.13;;;2.68;58.89
71889;BME280;59762;49.998;14.858;2023-04-07T03:21:21;97423.50;;;2.65;58.86
71889;BME280;59762;49.998;14.858;2023-04-07T03:23:47;97422.84;;;2.74;58.36
71889;BME280;59762;49.998;14.858;2023-04-07T03:26:12;97418.34;;;2.63;59.49
71889;BME280;59762;49.998;14.858;2023-04-07T03:28:38;97418.22;;;2.65;59.00
71889;BME280;59762;49.998;14.858;2023-04-07T03:31:04;97415.59;;;2.65;59.15
71889;BME280;59762;49.998;14.858;2023-04-07T03:33:29;97402.13;;;2.57;59.26
71889;BME280;59762;49.998;14.858;2023-04-07T03:35:55;97404.66;;;2.58;59.93
71889;BME280;59762;49.998;14.858;2023-04-07T03:38:21;97402.72;;;2.60;59.35
71889;BME280;59762;49.998;14.858;2023-04-07T03:40:46;97408.97;;;2.59;58.74
71889;BME280;59762;49.998;14.858;2023-04-07T03:43:12;97405.72;;;2.56;59.26
71889;BME280;59762;49.998;14.858;2023-04-07T03:45:42;97407.59;;;2.54;59.56
71889;BME280;59762;49.998;14.858;2023-04-07T03:48:08;97410.38;;;2.52;59.55
71889;BME280;59762;49.998;14.858;2023-04-07T03:50:38;97410.06;;;2.44;59.33
71889;BME280;59762;49.998;14.858;2023-04-07T03:53:04;97413.22;;;2.49;58.97
71889;BME280;59762;49.998;14.858;2023-04-07T03:55:30;97409.00;;;2.47;58.81
71889;BME280;59762;49.998;14.858;2023-04-07T03:57:57;97408.59;;;2.40;59.30
71889;BME280;59762;49.998;14.858;2023-04-07T04:00:22;97409.72;;;2.49;58.84
71889;BME280;59762;49.998;14.858;2023-04-07T04:02:48;97409.31;;;2.42;59.41
71889;BME280;59762;49.998;14.858;2023-04-07T04:05:14;97411.03;;;2.43;59.21
71889;BME280;59762;49.998;14.858;2023-04-07T04:07:40;97415.53;;;2.41;58.97
71889;BME280;59762;49.998;14.858;2023-04-07T04:10:06;97420.41;;;2.35;60.51
71889;BME280;59762;49.998;14.858;2023-04-07T04:12:32;97421.47;;;2.32;60.38
71889;BME280;59762;49.998;14.858;2023-04-07T04:14:57;97419.69;;;2.20;60.93
71889;BME280;59762;49.998;14.858;2023-04-07T04:17:24;97418.03;;;2.07;63.34
71889;BME280;59762;49.998;14.858;2023-04-07T04:19:50;97424.34;;;2.04;63.84
71889;BME280;59762;49.998;14.858;2023-04-07T04:22:16;97419.09;;;2.04;64.56
71889;BME280;59762;49.998;14.858;2023-04-07T04:24:42;97416.75;;;2.00;62.68
71889;BME280;59762;49.998;14.858;2023-04-07T04:27:08;97423.94;;;1.98;62.38
71889;BME280;59762;49.998;14.858;2023-04-07T04:29:33;97427.38;;;1.98;63.93
71889;BME280;59762;49.998;14.858;2023-04-07T04:31:59;97426.78;;;1.95;63.38
71889;BME280;59762;49.998;14.858;2023-04-07T04:34:24;97427.28;;;2.00;61.06
71889;BME280;59762;49.998;14.858;2023-04-07T04:36:50;97426.56;;;1.98;62.50
71889;BME280;59762;49.998;14.858;2023-04-07T04:39:16;97423.59;;;2.02;61.55
71889;BME280;59762;49.998;14.858;2023-04-07T04:41:43;97424.03;;;2.09;61.84
71889;BME280;59762;49.998;14.858;2023-04-07T04:44:08;97423.41;;;2.05;62.85
71889;BME280;59762;49.998;14.858;2023-04-07T04:46:34;97418.22;;;2.04;61.74
71889;BME280;59762;49.998;14.858;2023-04-07T04:48:59;97422.53;;;2.05;61.65
71889;BME280;59762;49.998;14.858;2023-04-07T04:51:25;97414.09;;;2.12;61.62
71889;BME280;59762;49.998;14.858;2023-04-07T04:53:51;97412.13;;;2.16;61.28
71889;BME280;59762;49.998;14.858;2023-04-07T04:56:17;97412.94;;;2.16;60.13
71889;BME280;59762;49.998;14.858;2023-04-07T04:58:43;97410.81;;;2.21;59.56
71889;BME280;59762;49.998;14.858;2023-04-07T05:01:11;97413.78;;;2.17;60.10
71889;BME280;59762;49.998;14.858;2023-04-07T05:03:37;97409.03;;;2.22;59.17
71889;BME280;59762;49.998;14.858;2023-04-07T05:06:03;97414.00;;;2.26;59.98
71889;BME280;59762;49.998;14.858;2023-04-07T05:08:29;97410.06;;;2.32;59.40
71889;BME280;59762;49.998;14.858;2023-04-07T05:10:54;97416.41;;;2.29;59.04
71889;BME280;59762;49.998;14.858;2023-04-07T05:13:20;97414.88;;;2.50;58.10
71889;BME280;59762;49.998;14.858;2023-04-07T05:15:46;97406.25;;;2.48;58.34
71889;BME280;59762;49.998;14.858;2023-04-07T05:18:12;97402.56;;;2.51;58.29
71889;BME280;59762;49.998;14.858;2023-04-07T05:20:38;97399.56;;;2.68;57.57
71889;BME280;59762;49.998;14.858;2023-04-07T05:23:03;97404.50;;;2.72;56.68
71889;BME280;59762;49.998;14.858;2023-04-07T05:25:29;97400.78;;;2.75;57.13
71889;BME280;59762;49.998;14.858;2023-04-07T05:27:57;97392.94;;;2.86;56.59
71889;BME280;59762;49.998;14.858;2023-04-07T05:30:23;97403.09;;;2.79;57.15
71889;BME280;59762;49.998;14.858;2023-04-07T05:32:48;97391.69;;;2.91;56.69
71889;BME280;59762;49.998;14.858;2023-04-07T05:35:14;97403.22;;;3.01;56.41
71889;BME280;59762;49.998;14.858;2023-04-07T05:37:40;97406.75;;;2.89;56.85
71889;BME280;59762;49.998;14.858;2023-04-07T05:40:06;97404.56;;;3.07;56.35
71889;BME280;59762;49.998;14.858;2023-04-07T05:42:32;97400.69;;;3.00;56.59
71889;BME280;59762;49.998;14.858;2023-04-07T05:44:58;97398.72;;;3.14;57.17
71889;BME280;59762;49.998;14.858;2023-04-07T05:47:23;97405.84;;;3.25;55.74
71889;BME280;59762;49.998;14.858;2023-04-07T05:49:49;97408.00;;;3.20;55.85
71889;BME280;59762;49.998;14.858;2023-04-07T05:52:14;97411.06;;;3.14;57.52
71889;BME280;59762;49.998;14.858;2023-04-07T05:54:40;97406.63;;;3.38;56.05
71889;BME280;59762;49.998;14.858;2023-04-07T05:57:06;97407.59;;;3.13;57.47
71889;BME280;59762;49.998;14.858;2023-04-07T05:59:35;97405.75;;;3.37;56.33
71889;BME280;59762;49.998;14.858;2023-04-07T06:02:02;97405.97;;;3.23;58.15
71889;BME280;59762;49.998;14.858;2023-04-07T06:04:28;97402.41;;;3.35;56.53
71889;BME280;59762;49.998;14.858;2023-04-07T06:06:53;97408.91;;;3.42;56.01
71889;BME280;59762;49.998;14.858;2023-04-07T06:09:20;97404.97;;;3.48;56.98
71889;BME280;59762;49.998;14.858;2023-04-07T06:11:46;97414.59;;;3.60;56.52
71889;BME280;59762;49.998;14.858;2023-04-07T06:14:12;97411.84;;;3.61;55.90
71889;BME280;59762;49.998;14.858;2023-04-07T06:16:38;97408.78;;;3.89;54.80
71889;BME280;59762;49.998;14.858;2023-04-07T06:19:04;97409.63;;;4.01;54.96
71889;BME280;59762;49.998;14.858;2023-04-07T06:21:29;97405.09;;;4.03;53.54
71889;BME280;59762;49.998;14.858;2023-04-07T06:23:56;97402.44;;;4.14;53.74
71889;BME280;59762;49.998;14.858;2023-04-07T06:26:21;97398.97;;;4.35;53.11
71889;BME280;59762;49.998;14.858;2023-04-07T06:28:48;97397.03;;;4.37;52.34
71889;BME280;59762;49.998;14.858;2023-04-07T06:31:13;97391.03;;;4.46;51.99
71889;BME280;59762;49.998;14.858;2023-04-07T06:33:39;97392.72;;;4.36;52.81
71889;BME280;59762;49.998;14.858;2023-04-07T06:36:05;97397.31;;;4.34;52.30
71889;BME280;59762;49.998;14.858;2023-04-07T06:38:31;97386.84;;;4.33;52.39
71889;BME280;59762;49.998;14.858;2023-04-07T06:40:57;97395.81;;;4.63;52.20
71889;BME280;59762;49.998;14.858;2023-04-07T06:43:22;97398.84;;;4.48;52.38
71889;BME280;59762;49.998;14.858;2023-04-07T06:45:48;97399.56;;;4.50;51.69
71889;BME280;59762;49.998;14.858;2023-04-07T06:48:14;97392.06;;;4.77;51.66
71889;BME280;59762;49.998;14.858;2023-04-07T06:50:40;97389.38;;;4.88;51.72
71889;BME280;59762;49.998;14.858;2023-04-07T06:53:06;97390.84;;;5.23;50.75
71889;BME280;59762;49.998;14.858;2023-04-07T06:55:31;97388.50;;;5.41;51.35
71889;BME280;59762;49.998;14.858;2023-04-07T06:57:57;97399.44;;;5.05;50.23
71889;BME280;59762;49.998;14.858;2023-04-07T07:00:24;97398.75;;;4.92;51.09
71889;BME280;59762;49.998;14.858;2023-04-07T07:02:50;97395.69;;;5.18;50.81
71889;BME280;59762;49.998;14.858;2023-04-07T07:05:16;97388.84;;;5.47;50.40
71889;BME280;59762;49.998;14.858;2023-04-07T07:07:42;97381.28;;;5.32;50.31
71889;BME280;59762;49.998;14.858;2023-04-07T07:10:08;97394.25;;;5.46;50.15
71889;BME280;59762;49.998;14.858;2023-04-07T07:12:35;97389.00;;;5.55;49.22
71889;BME280;59762;49.998;14.858;2023-04-07T07:15:01;97388.31;;;5.53;49.94
71889;BME280;59762;49.998;14.858;2023-04-07T07:17:26;97389.84;;;5.56;49.03
71889;BME280;59762;49.998;14.858;2023-04-07T07:19:52;97392.38;;;5.57;48.24
71889;BME280;59762;49.998;14.858;2023-04-07T07:22:18;97395.94;;;5.67;47.74
71889;BME280;59762;49.998;14.858;2023-04-07T07:24:43;97397.94;;;5.75;46.76
71889;BME280;59762;49.998;14.858;2023-04-07T07:27:09;97397.84;;;5.45;48.76
71889;BME280;59762;49.998;14.858;2023-04-07T07:29:35;97409.50;;;5.85;46.48
71889;BME280;59762;49.998;14.858;2023-04-07T07:32:01;97406.59;;;5.77;47.35
71889;BME280;59762;49.998;14.858;2023-04-07T07:34:26;97408.06;;;5.81;47.99
71889;BME280;59762;49.998;14.858;2023-04-07T07:36:52;97414.16;;;5.61;47.67
71889;BME280;59762;49.998;14.858;2023-04-07T07:39:17;97414.28;;;5.59;48.30
71889;BME280;59762;49.998;14.858;2023-04-07T07:41:43;97432.09;;;5.37;50.09
71889;BME280;59762;49.998;14.858;2023-04-07T07:44:09;97421.88;;;5.53;48.46
71889;BME280;59762;49.998;14.858;2023-04-07T07:46:35;97423.75;;;5.41;47.91
71889;BME280;59762;49.998;14.858;2023-04-07T07:49:00;97423.75;;;5.41;48.31
71889;BME280;59762;49.998;14.858;2023-04-07T07:51:26;97424.03;;;5.59;48.85
71889;BME280;59762;49.998;14.858;2023-04-07T07:53:52;97421.44;;;5.48;50.77
71889;BME280;59762;49.998;14.858;2023-04-07T07:56:18;97427.50;;;5.39;48.57
71889;BME280;59762;49.998;14.858;2023-04-07T07:58:44;97433.19;;;5.34;49.59
71889;BME280;59762;49.998;14.858;2023-04-07T08:01:09;97428.75;;;5.24;49.34
71889;BME280;59762;49.998;14.858;2023-04-07T08:03:35;97420.78;;;5.55;48.50
71889;BME280;59762;49.998;14.858;2023-04-07T08:06:01;97427.94;;;5.44;49.42
71889;BME280;59762;49.998;14.858;2023-04-07T08:08:27;97435.75;;;5.45;49.34
71889;BME280;59762;49.998;14.858;2023-04-07T08:10:53;97438.19;;;5.37;49.57
71889;BME280;59762;49.998;14.858;2023-04-07T08:13:18;97427.63;;;5.58;49.89
71889;BME280;59762;49.998;14.858;2023-04-07T08:15:44;97417.00;;;5.37;50.71
71889;BME280;59762;49.998;14.858;2023-04-07T08:18:10;97422.88;;;5.72;49.29
71889;BME280;59762;49.998;14.858;2023-04-07T08:20:36;97421.81;;;5.43;49.80
71889;BME280;59762;49.998;14.858;2023-04-07T08:23:02;97425.28;;;5.44;49.35
71889;BME280;59762;49.998;14.858;2023-04-07T08:25:28;97431.03;;;5.49;50.74
71889;BME280;59762;49.998;14.858;2023-04-07T08:27:54;97433.09;;;5.56;50.38
71889;BME280;59762;49.998;14.858;2023-04-07T08:30:21;97430.28;;;5.58;51.71
71889;BME280;59762;49.998;14.858;2023-04-07T08:32:47;97424.56;;;5.73;51.90
71889;BME280;59762;49.998;14.858;2023-04-07T08:35:13;97432.75;;;6.02;50.80
71889;BME280;59762;49.998;14.858;2023-04-07T08:37:39;97426.72;;;6.00;50.92
71889;BME280;59762;49.998;14.858;2023-04-07T08:40:09;97425.16;;;6.18;50.11
71889;BME280;59762;49.998;14.858;2023-04-07T08:42:41;97432.47;;;6.25;49.91
71889;BME280;59762;49.998;14.858;2023-04-07T08:45:09;97425.06;;;5.99;49.81
71889;BME280;59762;49.998;14.858;2023-04-07T08:47:39;97438.38;;;6.08;51.44
71889;BME280;59762;49.998;14.858;2023-04-07T08:50:10;97428.53;;;6.20;49.59
71889;BME280;59762;49.998;14.858;2023-04-07T08:52:44;97444.38;;;6.10;49.92
71889;BME280;59762;49.998;14.858;2023-04-07T08:55:14;97439.34;;;6.37;50.39
71889;BME280;59762;49.998;14.858;2023-04-07T08:57:42;97436.75;;;6.47;49.75
71889;BME280;59762;49.998;14.858;2023-04-07T09:00:10;97434.03;;;6.07;48.73
71889;BME280;59762;49.998;14.858;2023-04-07T09:02:40;97437.66;;;6.06;48.80
71889;BME280;59762;49.998;14.858;2023-04-07T09:05:12;97433.44;;;6.04;48.80
71889;BME280;59762;49.998;14.858;2023-04-07T09:07:42;97439.50;;;6.15;50.92
71889;BME280;59762;49.998;14.858;2023-04-07T09:10:11;97434.31;;;6.04;48.10
71889;BME280;59762;49.998;14.858;2023-04-07T09:12:39;97429.13;;;6.03;51.17
71889;BME280;59762;49.998;14.858;2023-04-07T09:15:07;97430.78;;;6.04;48.67
71889;BME280;59762;49.998;14.858;2023-04-07T09:17:33;97429.44;;;6.09;48.91
71889;BME280;59762;49.998;14.858;2023-04-07T09:19:59;97433.25;;;5.96;49.18
71889;BME280;59762;49.998;14.858;2023-04-07T09:22:39;97425.50;;;5.83;49.25
71889;BME280;59762;49.998;14.858;2023-04-07T09:25:23;97424.41;;;5.75;49.61
71889;BME280;59762;49.998;14.858;2023-04-07T09:28:00;97426.75;;;5.68;50.34
71889;BME280;59762;49.998;14.858;2023-04-07T09:30:27;97433.69;;;5.80;50.33
71889;BME280;59762;49.998;14.858;2023-04-07T09:32:53;97423.63;;;5.95;49.65
71889;BME280;59762;49.998;14.858;2023-04-07T09:35:20;97417.56;;;5.72;50.21
71889;BME280;59762;49.998;14.858;2023-04-07T09:38:16;97423.06;;;5.91;49.91
71889;BME280;59762;49.998;14.858;2023-04-07T09:40:42;97419.81;;;6.08;49.10
71889;BME280;59762;49.998;14.858;2023-04-07T09:43:14;97413.75;;;6.27;49.44
71889;BME280;59762;49.998;14.858;2023-04-07T09:45:40;97417.22;;;5.97;49.39
71889;BME280;59762;49.998;14.858;2023-04-07T09:48:19;97420.00;;;5.96;49.95
71889;BME280;59762;49.998;14.858;2023-04-07T09:50:46;97420.41;;;5.60;51.66
71889;BME280;59762;49.998;14.858;2023-04-07T09:53:16;97413.25;;;5.82;52.15
71889;BME280;59762;49.998;14.858;2023-04-07T09:55:43;97410.47;;;6.14;48.82
71889;BME280;59762;49.998;14.858;2023-04-07T09:58:12;97419.28;;;6.14;50.93
71889;BME280;59762;49.998;14.858;2023-04-07T10:00:40;97412.22;;;6.24;48.93
71889;BME280;59762;49.998;14.858;2023-04-07T10:03:06;97416.63;;;6.14;49.29
71889;BME280;59762;49.998;14.858;2023-04-07T10:05:33;97412.41;;;6.32;49.56
71889;BME280;59762;49.998;14.858;2023-04-07T10:08:00;97419.53;;;6.11;50.77
71889;BME280;59762;49.998;14.858;2023-04-07T10:10:27;97416.94;;;6.21;51.87
71889;BME280;59762;49.998;14.858;2023-04-07T10:12:55;97416.34;;;6.38;49.81
71889;BME280;59762;49.998;14.858;2023-04-07T10:15:21;97416.22;;;6.49;50.84
71889;BME280;59762;49.998;14.858;2023-04-07T10:17:48;97415.72;;;6.55;49.11
71889;BME280;59762;49.998;14.858;2023-04-07T10:20:18;97416.47;;;6.36;50.06
71889;BME280;59762;49.998;14.858;2023-04-07T10:22:51;97412.19;;;6.45;49.74
71889;BME280;59762;49.998;14.858;2023-04-07T10:25:20;97412.84;;;6.37;49.69
71889;BME280;59762;49.998;14.858;2023-04-07T10:27:49;97405.94;;;6.55;49.72
71889;BME280;59762;49.998;14.858;2023-04-07T10:30:23;97412.66;;;6.29;50.51
71889;BME280;59762;49.998;14.858;2023-04-07T10:32:50;97405.00;;;6.36;51.29
71889;BME280;59762;49.998;14.858;2023-04-07T10:35:17;97405.56;;;6.30;50.04
71889;BME280;59762;49.998;14.858;2023-04-07T10:40:39;97398.56;;;6.59;49.09
71889;BME280;59762;49.998;14.858;2023-04-07T10:43:06;97397.72;;;6.58;49.94
71889;BME280;59762;49.998;14.858;2023-04-07T10:48:18;97398.31;;;6.71;48.75
71889;BME280;59762;49.998;14.858;2023-04-07T10:50:45;97400.16;;;6.71;50.55
71889;BME280;59762;49.998;14.858;2023-04-07T10:53:32;97399.56;;;6.37;52.68
71889;BME280;59762;49.998;14.858;2023-04-07T10:55:59;97393.38;;;6.57;50.66
71889;BME280;59762;49.998;14.858;2023-04-07T10:58:25;97403.31;;;7.04;51.05
71889;BME280;59762;49.998;14.858;2023-04-07T11:03:33;97401.63;;;7.03;49.07
71889;BME280;59762;49.998;14.858;2023-04-07T11:06:10;97406.13;;;7.12;49.76
71889;BME280;59762;49.998;14.858;2023-04-07T11:08:38;97402.19;;;7.26;50.83
71889;BME280;59762;49.998;14.858;2023-04-07T11:11:07;97395.59;;;7.01;49.30
71889;BME280;59762;49.998;14.858;2023-04-07T11:13:47;97400.81;;;7.31;47.92
71889;BME280;59762;49.998;14.858;2023-04-07T11:16:14;97393.97;;;7.38;47.73
71889;BME280;59762;49.998;14.858;2023-04-07T11:18:41;97397.88;;;7.25;48.35
71889;BME280;59762;49.998;14.858;2023-04-07T11:21:08;97391.00;;;7.79;47.05
71889;BME280;59762;49.998;14.858;2023-04-07T11:23:42;97394.75;;;8.15;46.29
71889;BME280;59762;49.998;14.858;2023-04-07T11:26:09;97389.22;;;7.32;48.48
71889;BME280;59762;49.998;14.858;2023-04-07T11:28:54;97394.94;;;7.75;47.59
71889;BME280;59762;49.998;14.858;2023-04-07T11:31:28;97385.25;;;7.93;46.91
71889;BME280;59762;49.998;14.858;2023-04-07T11:34:00;97393.09;;;7.85;45.16
71889;BME280;59762;49.998;14.858;2023-04-07T11:36:31;97382.78;;;7.63;47.00
71889;BME280;59762;49.998;14.858;2023-04-07T11:38:58;97386.25;;;7.83;45.61
71889;BME280;59762;49.998;14.858;2023-04-07T11:41:26;97387.19;;;8.01;45.63
71889;BME280;59762;49.998;14.858;2023-04-07T11:44:09;97390.06;;;7.52;46.03
71889;BME280;59762;49.998;14.858;2023-04-07T11:46:36;97387.94;;;7.74;45.92
71889;BME280;59762;49.998;14.858;2023-04-07T11:49:12;97386.56;;;7.70;46.10
71889;BME280;59762;49.998;14.858;2023-04-07T11:51:42;97385.31;;;7.55;47.85
71889;BME280;59762;49.998;14.858;2023-04-07T11:54:08;97392.69;;;7.23;48.90
71889;BME280;59762;49.998;14.858;2023-04-07T11:56:45;97387.84;;;7.47;47.08
71889;BME280;59762;49.998;14.858;2023-04-07T11:59:21;97387.13;;;7.55;47.94
71889;BME280;59762;49.998;14.858;2023-04-07T12:01:51;97384.75;;;7.42;45.43
71889;BME280;59762;49.998;14.858;2023-04-07T12:04:17;97385.72;;;7.22;47.47
71889;BME280;59762;49.998;14.858;2023-04-07T12:06:45;97386.97;;;7.37;47.43
71889;BME280;59762;49.998;14.858;2023-04-07T12:09:39;97388.66;;;7.10;48.18
71889;BME280;59762;49.998;14.858;2023-04-07T12:12:06;97381.66;;;7.28;48.14
71889;BME280;59762;49.998;14.858;2023-04-07T12:14:33;97382.53;;;7.47;48.20
71889;BME280;59762;49.998;14.858;2023-04-07T12:16:59;97390.06;;;7.52;48.83
71889;BME280;59762;49.998;14.858;2023-04-07T12:19:29;97381.25;;;7.42;46.42
71889;BME280;59762;49.998;14.858;2023-04-07T12:21:55;97379.59;;;7.41;48.99
71889;BME280;59762;49.998;14.858;2023-04-07T12:24:21;97372.59;;;7.59;47.77
71889;BME280;59762;49.998;14.858;2023-04-07T12:26:48;97379.69;;;7.68;47.61
71889;BME280;59762;49.998;14.858;2023-04-07T12:29:15;97384.59;;;7.53;48.73
71889;BME280;59762;49.998;14.858;2023-04-07T12:31:41;97382.94;;;7.52;47.31
71889;BME280;59762;49.998;14.858;2023-04-07T12:34:08;97384.47;;;7.55;48.52
71889;BME280;59762;49.998;14.858;2023-04-07T12:36:34;97389.44;;;7.01;48.76
71889;BME280;59762;49.998;14.858;2023-04-07T12:38:59;97386.63;;;6.83;50.53
71889;BME280;59762;49.998;14.858;2023-04-07T12:41:25;97386.41;;;7.34;51.23
71889;BME280;59762;49.998;14.858;2023-04-07T12:43:51;97377.13;;;6.81;50.56
71889;BME280;59762;49.998;14.858;2023-04-07T12:46:18;97393.78;;;7.11;52.07
71889;BME280;59762;49.998;14.858;2023-04-07T12:48:44;97390.88;;;7.24;52.59
71889;BME280;59762;49.998;14.858;2023-04-07T12:51:10;97382.50;;;7.57;50.82
71889;BME280;59762;49.998;14.858;2023-04-07T12:53:36;97388.50;;;7.49;51.78
71889;BME280;59762;49.998;14.858;2023-04-07T12:56:01;97378.16;;;7.27;50.90
71889;BME280;59762;49.998;14.858;2023-04-07T12:58:27;97386.41;;;7.53;50.93
71889;BME280;59762;49.998;14.858;2023-04-07T13:00:53;97391.00;;;7.70;50.89
71889;BME280;59762;49.998;14.858;2023-04-07T13:03:19;97381.94;;;7.44;51.87
71889;BME280;59762;49.998;14.858;2023-04-07T13:05:45;97387.53;;;7.12;53.60
71889;BME280;59762;49.998;14.858;2023-04-07T13:08:10;97394.09;;;7.27;52.56
71889;BME280;59762;49.998;14.858;2023-04-07T13:10:36;97390.19;;;7.22;53.95
71889;BME280;59762;49.998;14.858;2023-04-07T13:13:02;97383.44;;;6.99;55.48